Time;durP1;ratioP1;P1;durP2;ratioP2;P2;SDS_P1;SDS_P2;PMS_P1;PMS_P2;Temp;Humidity;BMP_temperature;BMP_pressure;BME280_temperature;BME280_humidity;BME280_pressure;Samples;Min_cycle;Max_cycle;Signal;HPM_P1;HPM_P2
2023/11/30 00:01:37;;;;;;;5.40;4.63;;;3.40;99.90;;;;;;5032990;28;20180;-91
2023/11/30 00:04:03;;;;;;;5.70;4.67;;;2.90;99.90;;;;;;5015948;28;20493;-91
2023/11/30 00:06:28;;;;;;;4.40;3.80;;;3.50;99.90;;;;;;5011985;28;20185;-91
2023/11/30 00:08:57;;;;;;;5.80;4.30;;;2.90;99.90;;;;;;5002127;28;20182;-91
2023/11/30 00:11:22;;;;;;;5.10;4.30;;;2.60;99.90;;;;;;5009544;28;20282;-91
2023/11/30 00:13:48;;;;;;;5.23;4.47;;;2.30;99.90;;;;;;5013184;28;20751;-91
2023/11/30 00:16:13;;;;;;;4.40;4.00;;;3.20;99.90;;;;;;5028240;28;20171;-91
2023/11/30 00:18:39;;;;;;;5.43;4.67;;;3.10;99.90;;;;;;5028651;28;20207;-91
2023/11/30 00:21:05;;;;;;;5.13;4.20;;;2.90;99.90;;;;;;5004575;28;20253;-91
2023/11/30 00:23:32;;;;;;;5.22;4.72;;;2.80;99.90;;;;;;5009112;28;20259;-91
2023/11/30 00:25:58;;;;;;;4.78;4.20;;;2.80;99.90;;;;;;5007414;28;20175;-91
2023/11/30 00:28:23;;;;;;;7.17;4.40;;;2.60;99.90;;;;;;5011578;28;20182;-90
2023/11/30 00:30:49;;;;;;;5.53;4.00;;;2.70;99.90;;;;;;5009434;28;20566;-90
2023/11/30 00:33:14;;;;;;;5.90;4.63;;;2.80;99.90;;;;;;5009102;28;20770;-91
2023/11/30 00:35:40;;;;;;;4.90;4.50;;;2.10;99.90;;;;;;5006806;28;20187;-91
2023/11/30 00:38:06;;;;;;;5.50;4.60;;;2.50;99.90;;;;;;5009004;28;20195;-91
2023/11/30 00:40:31;;;;;;;6.90;4.17;;;3.10;99.90;;;;;;5009010;28;20241;-91
2023/11/30 00:42:56;;;;;;;4.83;4.43;;;2.50;99.90;;;;;;5010461;28;20200;-91
2023/11/30 00:45:22;;;;;;;4.80;4.30;;;2.40;99.90;;;;;;5011760;28;20663;-91
2023/11/30 00:47:47;;;;;;;6.23;4.37;;;2.60;99.90;;;;;;5011120;28;20198;-91
2023/11/30 00:50:13;;;;;;;5.07;4.20;;;3.00;99.90;;;;;;5018575;28;20187;-91
2023/11/30 00:52:39;;;;;;;6.00;4.90;;;2.50;99.90;;;;;;5018421;28;20684;-90
2023/11/30 00:55:05;;;;;;;4.90;4.10;;;2.40;99.90;;;;;;5013128;28;20215;-91
2023/11/30 00:57:30;;;;;;;4.97;4.47;;;2.80;99.90;;;;;;5009440;28;20192;-91
2023/11/30 00:59:56;;;;;;;4.60;4.20;;;2.80;99.90;;;;;;5012038;28;20191;-90
2023/11/30 01:02:21;;;;;;;4.90;4.30;;;2.60;99.90;;;;;;5013944;28;20220;-90
2023/11/30 01:04:47;;;;;;;5.57;5.07;;;2.80;99.90;;;;;;5012142;28;20222;-91
2023/11/30 01:07:12;;;;;;;4.53;4.13;;;2.70;99.90;;;;;;5013901;28;20199;-91
2023/11/30 01:09:38;;;;;;;5.10;4.23;;;2.80;99.90;;;;;;5011778;28;20273;-91
2023/11/30 01:12:05;;;;;;;5.50;4.45;;;2.80;99.90;;;;;;5013042;28;20688;-91
2023/11/30 01:14:30;;;;;;;4.38;4.00;;;2.80;99.90;;;;;;5011890;28;20199;-91
2023/11/30 01:16:56;;;;;;;5.53;4.10;;;2.80;99.90;;;;;;5006349;28;20200;-91
2023/11/30 01:19:21;;;;;;;9.13;4.63;;;2.00;99.90;;;;;;5009035;28;20195;-91
2023/11/30 01:21:47;;;;;;;4.53;4.07;;;2.80;99.90;;;;;;5013619;28;20191;-90
2023/11/30 01:24:12;;;;;;;5.10;4.10;;;2.80;99.90;;;;;;5015169;28;20215;-91
2023/11/30 01:26:38;;;;;;;7.10;4.73;;;2.70;99.90;;;;;;5006009;28;20194;-90
2023/11/30 01:29:03;;;;;;;7.30;4.43;;;2.40;99.90;;;;;;5010955;28;20183;-90
2023/11/30 01:31:29;;;;;;;5.33;4.30;;;2.50;99.90;;;;;;5004128;28;20231;-91
2023/11/30 01:33:54;;;;;;;6.37;5.03;;;2.60;99.90;;;;;;5037642;28;20198;-90
2023/11/30 01:36:20;;;;;;;4.60;4.13;;;2.50;99.90;;;;;;5042163;28;20187;-91
2023/11/30 01:38:45;;;;;;;5.13;4.63;;;2.50;99.90;;;;;;5028007;28;20196;-90
2023/11/30 01:41:11;;;;;;;5.80;4.57;;;2.60;99.90;;;;;;5018054;28;20206;-90
2023/11/30 01:43:36;;;;;;;5.97;4.90;;;2.20;99.90;;;;;;5020853;28;20306;-90
2023/11/30 01:46:02;;;;;;;5.13;4.63;;;3.10;99.90;;;;;;5015255;28;20186;-91
2023/11/30 01:48:28;;;;;;;6.33;5.20;;;2.60;99.90;;;;;;5031397;28;20190;-91
2023/11/30 01:50:54;;;;;;;4.47;4.07;;;1.90;99.90;;;;;;5034475;28;20440;-90
2023/11/30 01:53:20;;;;;;;4.53;4.13;;;2.10;99.90;;;;;;5029773;28;20486;-90
2023/11/30 01:55:46;;;;;;;5.93;4.97;;;2.60;99.90;;;;;;5040694;28;20191;-91
2023/11/30 01:58:13;;;;;;;6.67;4.80;;;2.40;99.90;;;;;;5019396;28;20247;-91
2023/11/30 02:00:39;;;;;;;5.38;4.82;;;2.70;99.90;;;;;;5028928;28;20172;-91
2023/11/30 02:03:05;;;;;;;5.05;4.43;;;2.70;99.90;;;;;;5025151;28;20688;-90
2023/11/30 02:05:32;;;;;;;5.63;5.00;;;1.90;99.90;;;;;;5015098;28;20273;-91
2023/11/30 02:07:57;;;;;;;7.55;5.38;;;2.20;99.90;;;;;;5012012;28;20186;-91
2023/11/30 02:10:23;;;;;;;4.80;4.30;;;2.90;99.90;;;;;;5011898;28;20564;-90
2023/11/30 02:12:49;;;;;;;5.70;4.87;;;2.60;99.90;;;;;;5013718;28;20238;-91
2023/11/30 02:15:15;;;;;;;9.80;5.27;;;2.60;99.90;;;;;;5022381;28;20710;-91
2023/11/30 02:17:40;;;;;;;5.10;4.60;;;2.90;99.90;;;;;;5034765;28;20195;-90
2023/11/30 02:20:06;;;;;;;5.97;4.30;;;2.60;99.90;;;;;;5037803;28;20199;-91
2023/11/30 02:22:32;;;;;;;7.10;5.25;;;2.60;99.90;;;;;;5029265;28;20405;-90
2023/11/30 02:24:57;;;;;;;5.87;4.97;;;2.60;99.90;;;;;;5039332;28;20191;-91
2023/11/30 02:27:23;;;;;;;5.70;5.20;;;3.10;99.90;;;;;;5029641;28;20212;-90
2023/11/30 02:29:48;;;;;;;5.33;4.83;;;2.60;99.90;;;;;;5035080;28;20177;-91
2023/11/30 02:32:14;;;;;;;12.40;5.30;;;2.50;99.90;;;;;;5047140;28;20211;-90
2023/11/30 02:34:40;;;;;;;5.63;5.00;;;2.70;99.90;;;;;;5029571;28;20312;-91
2023/11/30 02:37:05;;;;;;;5.43;4.40;;;2.60;99.90;;;;;;5031902;28;20191;-90
2023/11/30 02:39:31;;;;;;;5.90;4.90;;;2.10;99.90;;;;;;5043134;28;20175;-90
2023/11/30 02:41:56;;;;;;;6.60;5.23;;;2.60;99.90;;;;;;5034877;28;20190;-91
2023/11/30 02:44:22;;;;;;;5.20;4.67;;;2.40;99.90;;;;;;5029455;28;20489;-91
2023/11/30 02:46:47;;;;;;;6.00;4.70;;;2.30;99.90;;;;;;5015818;28;20215;-91
2023/11/30 02:49:16;;;;;;;4.83;4.33;;;2.50;99.90;;;;;;5018253;28;20194;-90
2023/11/30 02:51:42;;;;;;;7.85;5.45;;;2.00;99.90;;;;;;5031168;28;20215;-90
2023/11/30 02:54:07;;;;;;;5.40;4.73;;;1.80;99.90;;;;;;5032792;28;20201;-91
2023/11/30 02:56:41;;;;;;;7.70;5.30;;;2.00;99.90;;;;;;5028890;28;20179;-91
2023/11/30 02:59:06;;;;;;;5.78;5.15;;;1.70;99.90;;;;;;5022515;28;20188;-91
2023/11/30 03:01:32;;;;;;;5.83;4.77;;;2.00;99.90;;;;;;5000583;28;20254;-91
2023/11/30 03:03:57;;;;;;;5.33;4.57;;;2.00;99.90;;;;;;5017714;28;20258;-91
2023/11/30 03:06:23;;;;;;;5.50;4.90;;;2.50;99.90;;;;;;5009950;28;20215;-91
2023/11/30 03:08:48;;;;;;;6.00;5.10;;;2.30;99.90;;;;;;5012984;28;20198;-91
2023/11/30 03:11:14;;;;;;;6.07;5.47;;;2.30;99.90;;;;;;5008726;28;20247;-91
2023/11/30 03:13:40;;;;;;;5.40;4.90;;;2.10;99.90;;;;;;5008313;28;20225;-91
2023/11/30 03:16:06;;;;;;;5.55;4.78;;;2.10;99.90;;;;;;4997865;28;20273;-91
2023/11/30 03:18:31;;;;;;;6.10;5.20;;;2.20;99.90;;;;;;5010722;28;20578;-91
2023/11/30 03:20:57;;;;;;;5.40;4.90;;;2.10;99.90;;;;;;5003802;28;20519;-91
2023/11/30 03:23:22;;;;;;;7.47;5.37;;;2.00;99.90;;;;;;5002473;28;20231;-91
2023/11/30 03:25:48;;;;;;;5.77;5.17;;;2.60;99.90;;;;;;5010783;28;20233;-91
2023/11/30 03:28:13;;;;;;;6.50;5.80;;;2.50;99.90;;;;;;5006369;28;20198;-91
2023/11/30 03:30:39;;;;;;;6.90;5.00;;;1.60;99.90;;;;;;5004155;28;20279;-91
2023/11/30 03:33:04;;;;;;;6.30;5.57;;;2.00;99.90;;;;;;5003656;28;20213;-91
2023/11/30 03:35:30;;;;;;;6.10;4.70;;;1.40;99.90;;;;;;5009360;28;20195;-90
2023/11/30 03:37:55;;;;;;;7.30;5.63;;;2.00;99.90;;;;;;5003182;28;20200;-87
2023/11/30 03:40:21;;;;;;;5.73;4.60;;;2.00;99.90;;;;;;5005255;28;20201;-88
2023/11/30 03:42:46;;;;;;;5.27;4.63;;;2.10;99.90;;;;;;5004340;28;20187;-87
2023/11/30 03:45:12;;;;;;;5.83;4.67;;;2.50;99.90;;;;;;5008400;28;20675;-87
2023/11/30 03:47:37;;;;;;;6.13;5.53;;;2.10;99.90;;;;;;5005782;28;20202;-88
2023/11/30 03:50:03;;;;;;;6.60;5.40;;;1.90;99.90;;;;;;5014386;28;20193;-88
2023/11/30 03:52:29;;;;;;;5.67;5.07;;;1.90;99.90;;;;;;5009675;28;20207;-87
2023/11/30 03:54:54;;;;;;;5.60;4.63;;;2.00;99.90;;;;;;5009834;28;20461;-88
2023/11/30 03:57:20;;;;;;;5.97;4.47;;;2.10;99.90;;;;;;5008457;28;20202;-88
2023/11/30 03:59:45;;;;;;;5.27;4.77;;;2.20;99.90;;;;;;5006740;28;20183;-88
2023/11/30 04:02:11;;;;;;;5.20;4.40;;;2.40;99.90;;;;;;5035253;28;20180;-88
2023/11/30 04:04:39;;;;;;;6.70;5.23;;;2.00;99.90;;;;;;5029510;28;20214;-87
2023/11/30 04:07:05;;;;;;;5.97;5.38;;;1.90;99.90;;;;;;5044838;28;20183;-88
2023/11/30 04:09:30;;;;;;;6.27;5.57;;;2.00;99.90;;;;;;5003843;28;20276;-88
2023/11/30 04:11:56;;;;;;;6.70;5.67;;;2.40;99.90;;;;;;5010077;28;20710;-88
2023/11/30 04:14:21;;;;;;;6.33;5.73;;;1.80;99.90;;;;;;5013263;28;20207;-89
2023/11/30 04:16:47;;;;;;;7.20;6.10;;;1.80;99.90;;;;;;5011630;28;20186;-88
2023/11/30 04:19:12;;;;;;;5.70;4.97;;;2.00;99.90;;;;;;5008310;28;20507;-88
2023/11/30 04:21:39;;;;;;;6.53;5.23;;;2.30;99.90;;;;;;5011831;28;20545;-88
2023/11/30 04:24:05;;;;;;;6.35;5.75;;;2.00;99.90;;;;;;5013175;28;20248;-88
2023/11/30 04:26:30;;;;;;;5.77;5.17;;;1.90;99.90;;;;;;5010192;28;20260;-88
2023/11/30 04:28:56;;;;;;;7.33;5.67;;;2.20;99.90;;;;;;5015142;28;20501;-89
2023/11/30 04:31:22;;;;;;;5.93;5.10;;;2.20;99.90;;;;;;5008666;28;20290;-88
2023/11/30 04:33:47;;;;;;;6.33;5.13;;;2.00;99.90;;;;;;5012849;28;20207;-89
2023/11/30 04:36:15;;;;;;;5.67;5.07;;;2.20;99.90;;;;;;5012945;28;20210;-89
2023/11/30 04:38:41;;;;;;;6.65;5.50;;;2.50;99.90;;;;;;5015050;28;20214;-87
2023/11/30 04:41:07;;;;;;;6.80;5.63;;;2.50;99.90;;;;;;4999582;28;20211;-87
2023/11/30 04:43:33;;;;;;;6.40;5.80;;;2.00;99.90;;;;;;5014444;28;20217;-87
2023/11/30 04:45:58;;;;;;;6.53;5.60;;;2.40;99.90;;;;;;5011187;28;20434;-87
2023/11/30 04:48:24;;;;;;;7.17;5.00;;;2.20;99.90;;;;;;5015695;28;20207;-87
2023/11/30 04:50:49;;;;;;;5.37;4.87;;;2.60;99.90;;;;;;5017385;28;20611;-87
2023/11/30 04:53:15;;;;;;;6.10;5.50;;;2.40;99.90;;;;;;5014643;28;20312;-87
2023/11/30 04:55:40;;;;;;;6.47;5.70;;;2.40;99.90;;;;;;5011608;28;20183;-87
2023/11/30 04:58:06;;;;;;;8.20;5.90;;;1.90;99.90;;;;;;5007238;28;20188;-87
2023/11/30 05:00:31;;;;;;;6.13;5.20;;;2.20;99.90;;;;;;5013414;28;20195;-87
2023/11/30 05:02:57;;;;;;;6.20;5.60;;;2.00;99.90;;;;;;5012906;28;20194;-87
2023/11/30 05:05:22;;;;;;;5.50;4.97;;;2.70;99.90;;;;;;5027964;28;20187;-87
2023/11/30 05:07:49;;;;;;;6.87;5.83;;;2.30;99.90;;;;;;5023378;28;20704;-87
2023/11/30 05:10:15;;;;;;;6.43;5.57;;;2.40;99.90;;;;;;5013962;28;20446;-87
2023/11/30 05:12:40;;;;;;;6.20;5.03;;;2.60;99.90;;;;;;5012850;28;20214;-87
2023/11/30 05:15:06;;;;;;;6.47;5.60;;;2.30;99.90;;;;;;5013245;28;20196;-87
2023/11/30 05:17:33;;;;;;;8.38;5.90;;;2.30;99.90;;;;;;5033119;28;20183;-87
2023/11/30 05:19:58;;;;;;;8.90;6.25;;;2.60;99.90;;;;;;5030979;28;20206;-88
2023/11/30 05:22:24;;;;;;;6.70;5.70;;;2.20;99.90;;;;;;5017143;28;20671;-87
2023/11/30 05:24:50;;;;;;;8.97;6.00;;;2.10;99.90;;;;;;5009940;28;20204;-87
2023/11/30 05:27:16;;;;;;;6.60;5.72;;;1.90;99.90;;;;;;5013877;28;20326;-88
2023/11/30 05:29:42;;;;;;;6.95;5.82;;;1.80;99.90;;;;;;5017558;28;20250;-87
2023/11/30 05:32:07;;;;;;;6.13;5.40;;;1.80;99.90;;;;;;5027779;28;20210;-87
2023/11/30 05:34:35;;;;;;;6.67;5.90;;;1.80;99.90;;;;;;5006173;28;20223;-87
2023/11/30 05:37:02;;;;;;;7.63;6.03;;;1.70;99.90;;;;;;5012078;28;20471;-88
2023/11/30 05:39:28;;;;;;;8.25;6.28;;;1.30;99.90;;;;;;4995734;28;20566;-86
2023/11/30 05:41:53;;;;;;;6.30;5.70;;;1.90;99.90;;;;;;5020557;28;20168;-87
2023/11/30 05:44:19;;;;;;;6.50;5.37;;;2.20;99.90;;;;;;5032899;28;20200;-87
2023/11/30 05:46:46;;;;;;;8.35;6.72;;;2.60;99.90;;;;;;5035582;28;20256;-88
2023/11/30 05:49:12;;;;;;;8.60;6.68;;;2.50;99.90;;;;;;5023610;28;20614;-88
2023/11/30 05:51:39;;;;;;;7.57;6.13;;;2.60;99.90;;;;;;5015188;28;20241;-88
2023/11/30 05:54:05;;;;;;;10.30;7.18;;;2.20;99.90;;;;;;5016214;28;20201;-88
2023/11/30 05:56:31;;;;;;;7.40;5.90;;;2.30;99.90;;;;;;5012862;28;20518;-87
2023/11/30 05:58:57;;;;;;;9.00;6.60;;;2.60;99.90;;;;;;5018644;28;20464;-89
2023/11/30 06:01:23;;;;;;;7.53;6.35;;;2.20;99.90;;;;;;5034344;28;20198;-88
2023/11/30 06:03:49;;;;;;;11.37;7.37;;;2.40;99.90;;;;;;5033955;28;20192;-88
2023/11/30 06:06:14;;;;;;;10.13;6.77;;;2.20;99.90;;;;;;5009726;28;20192;-89
2023/11/30 06:08:40;;;;;;;7.67;6.60;;;2.70;99.90;;;;;;5016851;28;20187;-89
2023/11/30 06:11:05;;;;;;;7.27;6.47;;;2.60;99.90;;;;;;5008147;28;20551;-89
2023/11/30 06:13:31;;;;;;;7.07;6.37;;;2.20;99.90;;;;;;5008502;28;20722;-89
2023/11/30 06:15:58;;;;;;;9.27;7.63;;;2.30;99.90;;;;;;5007033;28;20238;-91
2023/11/30 06:18:23;;;;;;;8.50;7.18;;;2.30;99.90;;;;;;5009771;28;20659;-92
2023/11/30 06:20:49;;;;;;;7.57;6.87;;;2.00;99.90;;;;;;5011644;28;20198;-92
2023/11/30 06:23:15;;;;;;;7.87;7.07;;;3.10;99.90;;;;;;5014454;28;21006;-91
2023/11/30 06:25:42;;;;;;;11.57;8.30;;;1.90;99.90;;;;;;5012195;28;20191;-90
2023/11/30 06:28:09;;;;;;;10.25;7.20;;;0.90;99.90;;;;;;5017146;28;20182;-91
2023/11/30 06:30:38;;;;;;;7.55;6.82;;;2.60;99.90;;;;;;5009122;28;20198;-91
2023/11/30 06:33:04;;;;;;;9.95;7.85;;;;;;;;;;5007155;28;20210;-91
2023/11/30 06:35:30;;;;;;;8.87;7.43;;;;;;;;;;5022358;28;20281;-90
2023/11/30 06:37:55;;;;;;;9.73;7.20;;;1.90;99.90;;;;;;5039398;28;20452;-90
2023/11/30 06:40:21;;;;;;;8.13;6.80;;;1.90;99.90;;;;;;5027665;28;20500;-91
2023/11/30 06:42:47;;;;;;;14.67;7.70;;;2.50;99.90;;;;;;5014117;28;20180;-90
2023/11/30 06:45:13;;;;;;;13.20;7.67;;;;;;;;;;5012170;28;20291;-90
2023/11/30 06:47:38;;;;;;;9.43;7.05;;;2.10;99.90;;;;;;5011462;28;20204;-90
2023/11/30 06:50:07;;;;;;;14.13;7.53;;;1.90;99.90;;;;;;5008853;28;20215;-93
2023/11/30 06:52:33;;;;;;;9.77;8.88;;;2.50;99.90;;;;;;4991582;28;20231;-90
2023/11/30 06:54:58;;;;;;;9.30;6.67;;;2.20;99.90;;;;;;5010038;28;20207;-90
2023/11/30 06:57:24;;;;;;;8.30;7.50;;;2.60;99.90;;;;;;5007665;28;20198;-90
2023/11/30 06:59:50;;;;;;;7.13;6.10;;;2.80;99.90;;;;;;5002150;28;20217;-90
2023/11/30 07:02:15;;;;;;;9.00;7.60;;;2.30;99.90;;;;;;5018151;28;20218;-90
2023/11/30 07:04:41;;;;;;;7.20;6.50;;;2.30;99.90;;;;;;5018250;28;20283;-90
2023/11/30 07:07:06;;;;;;;7.07;6.37;;;2.20;99.90;;;;;;5021031;28;20187;-90
2023/11/30 07:09:32;;;;;;;8.77;6.97;;;2.20;99.90;;;;;;5019093;28;20188;-90
2023/11/30 07:11:57;;;;;;;9.40;7.63;;;1.50;99.90;;;;;;5014297;28;20351;-90
2023/11/30 07:14:23;;;;;;;10.13;7.30;;;1.90;99.90;;;;;;5014817;28;20277;-89
2023/11/30 07:16:48;;;;;;;7.50;6.73;;;2.50;99.90;;;;;;5025252;28;20179;-90
2023/11/30 07:19:14;;;;;;;7.70;6.63;;;2.50;99.90;;;;;;5042476;28;20198;-90
2023/11/30 07:21:39;;;;;;;23.50;15.47;;;2.30;99.90;;;;;;5026499;28;20236;-90
2023/11/30 07:24:07;;;;;;;8.03;6.40;;;2.20;99.90;;;;;;5026068;28;20209;-90
2023/11/30 07:26:33;;;;;;;10.10;7.00;;;2.10;99.90;;;;;;5015215;28;20190;-90
2023/11/30 07:28:58;;;;;;;7.67;6.87;;;2.60;99.90;;;;;;5015425;28;20179;-90
2023/11/30 07:31:24;;;;;;;12.30;7.77;;;2.20;99.90;;;;;;5009069;28;20210;-90
2023/11/30 07:33:50;;;;;;;9.93;7.65;;;2.40;99.90;;;;;;5010038;28;20207;-90
2023/11/30 07:36:15;;;;;;;9.13;7.00;;;2.30;99.90;;;;;;5011702;28;20178;-90
2023/11/30 07:38:41;;;;;;;8.13;6.80;;;2.60;99.90;;;;;;5009699;28;20561;-90
2023/11/30 07:41:07;;;;;;;8.73;7.30;;;2.70;99.90;;;;;;5023979;28;20556;-90
2023/11/30 07:43:32;;;;;;;7.83;7.03;;;2.80;99.90;;;;;;5026195;28;20266;-90
2023/11/30 07:45:59;;;;;;;10.77;7.13;;;3.10;99.90;;;;;;5037230;28;20440;-91
2023/11/30 07:48:25;;;;;;;9.60;8.45;;;2.90;99.90;;;;;;5042665;28;20202;-91
2023/11/30 07:50:53;;;;;;;7.30;6.50;;;2.90;99.90;;;;;;5037847;28;20183;-91
2023/11/30 07:53:18;;;;;;;9.40;7.40;;;2.90;99.90;;;;;;5029690;28;20500;-91
2023/11/30 07:55:44;;;;;;;7.17;6.47;;;2.90;99.90;;;;;;5033360;28;20200;-91
2023/11/30 07:58:10;;;;;;;10.20;8.00;;;2.80;99.90;;;;;;5021247;28;20664;-91
2023/11/30 08:00:36;;;;;;;8.52;7.47;;;3.00;99.90;;;;;;5024539;28;20190;-90
2023/11/30 08:03:02;;;;;;;8.47;7.20;;;3.20;99.90;;;;;;5036014;28;20194;-90
2023/11/30 08:05:27;;;;;;;8.57;7.10;;;2.80;99.90;;;;;;5033257;28;20340;-90
2023/11/30 08:07:53;;;;;;;14.83;9.70;;;3.20;99.90;;;;;;5027607;28;20506;-90
2023/11/30 08:10:19;;;;;;;10.40;8.23;;;2.90;99.90;;;;;;5019265;28;20261;-90
2023/11/30 08:12:45;;;;;;;10.82;8.32;;;2.50;99.90;;;;;;5031193;28;20250;-90
2023/11/30 08:15:11;;;;;;;8.93;7.30;;;3.00;99.90;;;;;;5043119;28;20193;-90
2023/11/30 08:17:36;;;;;;;9.20;8.00;;;3.30;99.90;;;;;;5016417;28;20445;-90
2023/11/30 08:20:02;;;;;;;7.47;6.77;;;3.30;99.90;;;;;;5015874;28;20317;-90
2023/11/30 08:22:27;;;;;;;9.60;7.60;;;3.00;99.90;;;;;;5017355;28;20187;-90
2023/11/30 08:24:53;;;;;;;8.00;7.20;;;3.20;99.90;;;;;;5023599;28;20718;-90
2023/11/30 08:27:22;;;;;;;9.80;8.77;;;3.60;99.90;;;;;;5014845;28;20200;-90
2023/11/30 08:29:49;;;;;;;10.52;9.10;;;3.70;99.90;;;;;;5023547;28;20181;-90
2023/11/30 08:32:14;;;;;;;9.32;8.43;;;3.10;99.90;;;;;;5021557;28;20203;-90
2023/11/30 08:34:40;;;;;;;10.17;7.77;;;3.20;99.90;;;;;;5031604;28;20243;-90
2023/11/30 08:37:06;;;;;;;9.90;7.87;;;3.50;99.90;;;;;;5019138;28;20454;-90
2023/11/30 08:39:32;;;;;;;10.50;8.13;;;3.20;99.90;;;;;;5009217;28;20218;-90
2023/11/30 08:41:58;;;;;;;11.38;7.85;;;3.10;99.90;;;;;;5011341;28;20188;-90
2023/11/30 08:44:24;;;;;;;8.80;7.90;;;3.50;99.90;;;;;;5009139;28;20337;-90
2023/11/30 08:46:50;;;;;;;16.00;9.73;;;3.90;99.90;;;;;;5009359;28;20180;-90
2023/11/30 08:49:15;;;;;;;11.13;8.83;;;4.10;99.90;;;;;;5016825;28;20184;-90
2023/11/30 08:51:42;;;;;;;15.00;9.00;;;3.90;99.90;;;;;;5015547;28;20583;-90
2023/11/30 08:54:07;;;;;;;10.98;8.20;;;3.70;99.90;;;;;;5013582;28;20315;-90
2023/11/30 08:56:33;;;;;;;13.37;9.13;;;3.80;99.90;;;;;;5001045;28;20330;-90
2023/11/30 08:58:59;;;;;;;9.23;8.07;;;4.30;99.90;;;;;;5007500;28;20215;-90
2023/11/30 09:01:25;;;;;;;10.97;9.07;;;4.00;99.90;;;;;;5010132;28;20572;-90
2023/11/30 09:03:53;;;;;;;10.52;9.50;;;4.00;99.90;;;;;;5003142;28;20809;-90
2023/11/30 09:06:19;;;;;;;11.18;8.35;;;4.10;99.90;;;;;;5014592;28;20183;-90
2023/11/30 09:08:45;;;;;;;11.93;8.77;;;4.10;99.90;;;;;;5012953;28;20193;-90
2023/11/30 09:11:10;;;;;;;14.03;8.50;;;4.00;99.90;;;;;;5009505;28;20272;-90
2023/11/30 09:13:36;;;;;;;8.80;7.90;;;4.20;99.90;;;;;;5013669;28;20592;-90
2023/11/30 09:16:02;;;;;;;9.20;8.20;;;4.30;99.90;;;;;;5010601;28;20550;-91
2023/11/30 09:18:28;;;;;;;10.77;8.50;;;4.30;99.90;;;;;;5012642;28;20196;-90
2023/11/30 09:20:53;;;;;;;9.43;7.80;;;4.20;99.90;;;;;;5011588;28;20209;-90
2023/11/30 09:23:19;;;;;;;14.13;8.77;;;4.20;99.90;;;;;;5013442;28;20608;-90
2023/11/30 09:25:45;;;;;;;11.67;9.07;;;4.50;99.90;;;;;;5007395;28;20191;-90
2023/11/30 09:28:10;;;;;;;12.10;9.03;;;4.20;99.90;;;;;;5033618;28;20211;-90
2023/11/30 09:30:36;;;;;;;11.10;8.97;;;4.50;99.90;;;;;;5022970;28;20472;-90
2023/11/30 09:33:03;;;;;;;11.27;9.40;;;4.60;99.90;;;;;;5013870;28;20232;-90
2023/11/30 09:35:28;;;;;;;11.50;10.20;;;4.10;99.90;;;;;;5012240;28;20459;-90
2023/11/30 09:37:54;;;;;;;12.00;10.10;;;4.70;99.90;;;;;;5011810;28;20202;-88
2023/11/30 09:40:19;;;;;;;11.73;9.50;;;4.80;99.90;;;;;;5022669;28;20243;-88
2023/11/30 09:42:45;;;;;;;12.77;8.97;;;4.50;99.90;;;;;;5019117;28;20204;-88
2023/11/30 09:45:11;;;;;;;14.48;11.30;;;4.90;99.90;;;;;;5017434;28;20298;-88
2023/11/30 09:47:37;;;;;;;13.27;11.07;;;4.80;99.90;;;;;;5015874;28;20195;-88
2023/11/30 09:50:03;;;;;;;11.88;9.38;;;4.20;99.90;;;;;;5024037;28;20203;-88
2023/11/30 09:52:29;;;;;;;10.17;8.90;;;4.40;99.90;;;;;;5014493;28;20214;-88
2023/11/30 09:54:56;;;;;;;11.10;10.00;;;4.60;99.90;;;;;;5013659;28;20237;-88
2023/11/30 09:57:25;;;;;;;10.48;9.40;;;4.40;99.90;;;;;;5011263;28;20186;-89
2023/11/30 09:59:51;;;;;;;13.35;10.13;;;4.60;99.90;;;;;;5004143;28;20623;-88
2023/11/30 10:02:18;;;;;;;10.80;9.67;;;4.90;99.90;;;;;;5007717;28;20207;-88
2023/11/30 10:04:45;;;;;;;11.23;8.95;;;5.00;99.90;;;;;;5011647;28;20249;-88
2023/11/30 10:07:11;;;;;;;11.07;9.95;;;4.50;99.90;;;;;;5009690;28;20208;-88
2023/11/30 10:09:37;;;;;;;11.70;10.43;;;5.20;99.90;;;;;;5011110;28;20648;-88
2023/11/30 10:12:04;;;;;;;11.30;10.10;;;5.00;99.90;;;;;;5013115;28;20224;-88
2023/11/30 10:14:29;;;;;;;15.05;10.75;;;4.40;99.90;;;;;;5010521;28;20197;-89
2023/11/30 10:16:55;;;;;;;15.30;10.53;;;4.80;99.90;;;;;;5006563;28;20198;-87
2023/11/30 10:19:21;;;;;;;16.10;9.93;;;4.60;99.90;;;;;;5006428;28;20226;-87
2023/11/30 10:21:47;;;;;;;11.73;9.93;;;4.50;99.90;;;;;;5006169;28;20260;-88
2023/11/30 10:24:13;;;;;;;14.60;9.13;;;4.50;99.90;;;;;;5012475;28;20259;-88
2023/11/30 10:26:42;;;;;;;13.83;9.47;;;4.50;99.90;;;;;;5011249;28;20220;-88
2023/11/30 10:29:08;;;;;;;17.20;9.82;;;5.30;99.90;;;;;;5005656;28;20191;-88
2023/11/30 10:31:37;;;;;;;8.80;7.90;;;5.60;99.90;;;;;;5000218;28;20192;-88
2023/11/30 10:34:10;;;;;;;12.70;8.95;;;5.40;99.90;;;;;;5012523;28;20238;-88
2023/11/30 10:36:38;;;;;;;11.75;9.00;;;5.50;99.90;;;;;;5010086;28;20190;-88
2023/11/30 10:39:22;;;;;;;18.08;9.45;;;5.60;99.90;;;;;;5011020;28;20231;-88
2023/11/30 10:41:53;;;;;;;14.30;10.10;;;5.30;99.90;;;;;;5010333;28;20197;-88
2023/11/30 10:44:30;;;;;;;13.57;9.70;;;5.50;99.90;;;;;;5031520;28;20211;-88
2023/11/30 10:47:00;;;;;;;14.18;9.52;;;5.60;99.90;;;;;;5036421;28;20190;-88
2023/11/30 10:49:27;;;;;;;12.35;9.85;;;6.40;99.90;;;;;;5019592;28;20194;-88
2023/11/30 10:51:58;;;;;;;11.00;9.27;;;6.30;99.90;;;;;;5006908;28;20222;-88
2023/11/30 10:54:51;;;;;;;10.02;9.00;;;6.10;99.90;;;;;;5003059;28;20223;-87
2023/11/30 10:57:19;;;;;;;14.70;9.70;;;6.00;99.90;;;;;;5030729;28;20302;-88
2023/11/30 10:59:44;;;;;;;9.90;8.80;;;6.30;99.90;;;;;;5023393;28;20215;-88
2023/11/30 11:02:12;;;;;;;12.13;8.63;;;6.40;99.90;;;;;;5034122;28;20214;-88
2023/11/30 11:04:42;;;;;;;15.25;11.10;;;6.10;99.90;;;;;;5030574;28;20207;-89
2023/11/30 11:07:12;;;;;;;10.18;8.25;;;6.40;99.90;;;;;;5006863;28;20193;-89
2023/11/30 11:09:51;;;;;;;9.30;8.40;;;5.90;99.90;;;;;;5011785;28;20274;-89
2023/11/30 11:12:32;;;;;;;13.40;9.38;;;5.80;99.90;;;;;;5008358;28;20221;-89
2023/11/30 11:15:08;;;;;;;16.08;9.93;;;6.20;99.90;;;;;;5005062;28;20322;-89
2023/11/30 11:17:45;;;;;;;10.38;9.27;;;6.00;99.90;;;;;;5008035;28;20743;-89
2023/11/30 11:20:27;;;;;;;11.38;9.52;;;6.60;99.90;;;;;;5006339;28;20190;-89
2023/11/30 11:23:04;;;;;;;11.88;9.75;;;6.40;99.90;;;;;;5011649;28;20210;-89
2023/11/30 11:25:39;;;;;;;18.15;10.00;;;6.50;99.90;;;;;;5012397;28;20602;-88
2023/11/30 11:28:06;;;;;;;15.27;9.77;;;5.90;99.90;;;;;;5012328;28;20236;-89
2023/11/30 11:30:31;;;;;;;11.10;8.73;;;6.30;99.90;;;;;;5008611;28;20187;-89
2023/11/30 11:32:58;;;;;;;9.13;8.00;;;6.40;99.90;;;;;;5008886;28;20230;-89
2023/11/30 11:35:26;;;;;;;9.05;7.72;;;6.40;99.90;;;;;;5004463;28;20658;-88
2023/11/30 11:37:54;;;;;;;9.98;8.75;;;6.20;99.90;;;;;;5005488;28;20199;-88
2023/11/30 11:40:21;;;;;;;9.35;8.43;;;6.70;99.90;;;;;;5007348;28;20212;-88
2023/11/30 11:42:47;;;;;;;11.27;9.30;;;6.60;99.90;;;;;;5010573;28;20190;-88
2023/11/30 11:45:14;;;;;;;13.30;7.90;;;5.90;99.90;;;;;;5000338;28;20211;-89
2023/11/30 11:47:39;;;;;;;9.82;8.82;;;5.90;99.90;;;;;;5018562;28;20205;-88
2023/11/30 11:50:06;;;;;;;9.20;8.30;;;6.40;99.90;;;;;;5009653;28;20184;-88
2023/11/30 11:52:32;;;;;;;9.25;7.68;;;6.00;99.90;;;;;;5007613;28;20278;-88
2023/11/30 11:55:09;;;;;;;9.40;8.27;;;6.30;99.90;;;;;;5016354;28;20218;-88
2023/11/30 11:57:43;;;;;;;9.75;8.35;;;6.00;99.90;;;;;;5015097;28;20576;-88
2023/11/30 12:00:16;;;;;;;10.43;8.27;;;6.50;99.90;;;;;;5004444;28;20196;-88
2023/11/30 12:02:42;;;;;;;9.73;8.48;;;6.40;99.90;;;;;;5025547;28;20190;-87
2023/11/30 12:05:16;;;;;;;8.60;7.70;;;6.60;99.90;;;;;;5011021;28;20605;-90
2023/11/30 12:07:56;;;;;;;20.25;9.07;;;6.60;99.90;;;;;;5012688;28;20697;-90
2023/11/30 12:10:27;;;;;;;18.02;10.07;;;6.30;99.90;;;;;;5013181;28;20194;-90
2023/11/30 12:12:53;;;;;;;10.55;8.57;;;6.30;99.90;;;;;;5007269;28;20211;-90
2023/11/30 12:15:19;;;;;;;10.20;9.20;;;6.80;99.90;;;;;;5008346;28;20194;-90
2023/11/30 12:17:45;;;;;;;9.60;8.60;;;6.60;99.90;;;;;;5010712;28;20195;-91
2023/11/30 12:20:10;;;;;;;9.30;8.23;;;6.60;99.90;;;;;;5001371;28;20194;-90
2023/11/30 12:22:36;;;;;;;11.13;8.80;;;6.30;99.90;;;;;;5004638;28;20191;-90
2023/11/30 12:25:02;;;;;;;10.57;8.47;;;6.40;99.90;;;;;;5004558;28;20207;-90
2023/11/30 12:27:28;;;;;;;10.10;8.75;;;6.20;99.90;;;;;;5002009;28;20217;-90
2023/11/30 12:29:54;;;;;;;13.35;9.40;;;6.50;99.90;;;;;;4998380;28;20191;-90
2023/11/30 12:32:20;;;;;;;12.30;8.43;;;6.20;99.90;;;;;;5015997;28;20291;-90
2023/11/30 12:34:45;;;;;;;12.27;8.60;;;6.30;99.90;;;;;;5009303;28;20291;-90
2023/11/30 12:37:11;;;;;;;8.20;7.40;;;6.20;99.90;;;;;;5015347;28;20530;-90
2023/11/30 12:39:37;;;;;;;9.93;8.77;;;6.30;99.90;;;;;;5009154;28;20191;-90
2023/11/30 12:42:05;;;;;;;12.82;9.00;;;6.00;99.90;;;;;;5013372;28;20446;-90
2023/11/30 12:44:33;;;;;;;12.75;8.73;;;6.20;99.90;;;;;;5016918;28;20231;-90
2023/11/30 12:46:59;;;;;;;11.45;8.23;;;6.20;99.90;;;;;;5018211;28;20186;-90
2023/11/30 12:49:24;;;;;;;12.30;9.77;;;6.40;99.90;;;;;;5012025;28;20187;-89
2023/11/30 12:51:50;;;;;;;10.23;9.13;;;6.20;99.90;;;;;;5013920;28;20443;-90